createdAt,value
2018-02-02T13:44:11.574Z,57.56
2018-02-02T13:45:11.316Z,57.2
2018-02-02T13:46:11.359Z,57.81
2018-02-02T13:47:11.405Z,57.07
2018-02-02T13:48:11.215Z,57.17
2018-02-02T13:49:11.720Z,56.61
2018-02-02T13:50:11.187Z,55.9
2018-02-02T13:51:11.191Z,55.39
2018-02-02T13:52:11.190Z,54.33
2018-02-02T13:53:11.190Z,54.12
2018-02-02T13:54:11.222Z,54.28
2018-02-02T13:55:11.190Z,53.97
2018-02-02T13:56:11.247Z,53.97
2018-02-02T13:57:11.194Z,53.41
2018-02-02T13:58:11.199Z,53.14
2018-02-02T13:59:11.201Z,52.99
2018-02-02T14:00:11.226Z,52.88
2018-02-02T14:01:11.197Z,52.77
2018-02-02T14:02:11.203Z,53.04
2018-02-02T14:03:11.198Z,52.52
2018-02-02T14:04:11.198Z,52.52
2018-02-02T14:05:11.426Z,52.86
2018-02-02T14:06:11.207Z,52.48
2018-02-02T14:07:11.205Z,52.35
2018-02-02T14:08:11.200Z,52.38
2018-02-02T14:09:11.204Z,52.64
2018-02-02T14:10:11.209Z,52.51
2018-02-02T14:11:11.233Z,51.98
2018-02-02T14:12:11.209Z,52.15
2018-02-02T14:13:11.440Z,52.02
2018-02-02T14:14:11.434Z,52.48
2018-02-02T14:15:11.533Z,52.17
2018-02-02T14:16:11.783Z,51.89
2018-02-02T14:17:11.219Z,52.29
2018-02-02T14:18:11.212Z,52.15
2018-02-02T14:19:11.212Z,51.8
2018-02-02T14:20:11.297Z,51.68
2018-02-02T14:21:11.584Z,52.03
2018-02-02T14:22:11.676Z,52.07
2018-02-02T14:23:11.218Z,51.98
2018-02-02T14:24:11.219Z,51.88
2018-02-02T14:25:11.221Z,52.07
2018-02-02T14:26:11.223Z,51.9
2018-02-02T14:27:11.251Z,51.97
2018-02-02T14:28:11.225Z,51.5
2018-02-02T14:29:11.226Z,51.81
2018-02-02T14:30:11.225Z,51.54
2018-02-02T14:31:11.223Z,51.09
2018-02-02T14:32:11.254Z,50.86
2018-02-02T14:33:11.222Z,51.52
2018-02-02T14:34:11.225Z,50.9
2018-02-02T14:35:11.227Z,50.63
2018-02-02T14:36:11.670Z,49.91
2018-02-02T14:37:11.381Z,49.92
2018-02-02T14:38:11.233Z,49.74
2018-02-02T14:39:11.227Z,49.31
2018-02-02T14:40:11.228Z,49.1
2018-02-02T14:41:11.238Z,49.58
2018-02-02T14:42:11.257Z,49.48
2018-02-02T14:43:11.231Z,49.11
2018-02-02T14:44:11.233Z,49.75
2018-02-02T14:45:11.235Z,49.57
2018-02-02T14:46:11.284Z,49.77
2018-02-02T14:47:11.276Z,49.03
2018-02-02T14:48:11.239Z,49.01
2018-02-02T14:49:11.240Z,49.11
2018-02-02T14:50:11.241Z,49.13
2018-02-02T14:51:11.271Z,49.03
2018-02-02T14:52:11.244Z,48.94
2018-02-02T14:53:11.239Z,49.55
2018-02-02T14:54:11.240Z,49.58
2018-02-02T14:55:11.312Z,49.09
2018-02-02T14:56:11.604Z,49.4
2018-02-02T14:57:11.246Z,49.11
2018-02-02T14:58:11.244Z,49.13
2018-02-02T14:59:11.246Z,49.42
2018-02-02T15:00:11.248Z,49.3
2018-02-02T15:01:11.252Z,49.15
2018-02-02T15:02:11.277Z,49.2
2018-02-02T15:03:11.251Z,49.08
2018-02-02T15:04:11.251Z,49.46
2018-02-02T15:05:11.255Z,49.4
2018-02-02T15:06:11.255Z,49.56
2018-02-02T15:07:11.663Z,49.26
2018-02-02T15:08:11.268Z,49.46
2018-02-02T15:09:11.287Z,49.32
2018-02-02T15:10:11.254Z,49.16
2018-02-02T15:11:11.304Z,49.95
2018-02-02T15:12:11.303Z,50.4
2018-02-02T15:13:11.256Z,49.63
2018-02-02T15:14:11.270Z,48.96
2018-02-02T15:15:11.264Z,49.01
2018-02-02T15:16:11.261Z,49.52
2018-02-02T15:17:11.438Z,49.5
2018-02-02T15:18:11.266Z,49.71
2018-02-02T15:19:11.262Z,49.9
2018-02-02T15:20:11.401Z,49.54
2018-02-02T15:21:11.263Z,49.83
2018-02-02T15:22:11.809Z,49.43
2018-02-02T15:23:11.387Z,49.91
2018-02-02T15:24:11.269Z,49.86
2018-02-02T15:25:11.266Z,50.02
2018-02-02T15:26:11.269Z,50
2018-02-02T15:27:11.271Z,49.47
2018-02-02T15:28:11.343Z,49.81
2018-02-02T15:29:11.272Z,49.4
2018-02-02T15:30:11.280Z,49.99
2018-02-02T15:31:11.275Z,50.06
2018-02-02T15:32:11.275Z,49.67
2018-02-02T15:33:11.308Z,49.95
2018-02-02T15:34:11.295Z,49.83
2018-02-02T15:35:11.311Z,50.06
2018-02-02T15:36:11.284Z,50.12
2018-02-02T15:37:11.698Z,50.06
2018-02-02T15:38:11.277Z,49.94
2018-02-02T15:39:11.298Z,50
2018-02-02T15:40:11.281Z,50.67
2018-02-02T15:41:11.283Z,50.29
2018-02-02T15:42:11.287Z,50.07
2018-02-02T15:43:11.321Z,50.42
2018-02-02T15:44:11.280Z,49.91
2018-02-02T15:45:11.284Z,50.03
2018-02-02T15:46:11.283Z,50.23
2018-02-02T15:47:11.292Z,50.55
2018-02-02T15:48:11.312Z,50.75
2018-02-02T15:49:11.295Z,50.13
2018-02-02T15:50:11.290Z,50.35
2018-02-02T15:51:11.290Z,50.65
2018-02-02T15:52:11.296Z,50.15
2018-02-02T15:53:11.365Z,50.29
2018-02-02T15:54:11.318Z,50.6
2018-02-02T15:55:11.298Z,50.4
2018-02-02T15:56:11.356Z,50.67
2018-02-02T15:57:11.500Z,50.52
2018-02-02T15:58:11.299Z,50.52
2018-02-02T15:59:11.326Z,50.43
2018-02-02T16:00:11.299Z,50.13
2018-02-02T16:01:11.318Z,50.76
2018-02-02T16:02:11.344Z,50.7
2018-02-02T16:03:11.531Z,50.34
2018-02-02T16:04:11.300Z,50.76
2018-02-02T16:05:11.301Z,50.63
2018-02-02T16:06:11.298Z,50.45
2018-02-02T16:07:11.307Z,50.87
2018-02-02T16:08:11.302Z,50.3
2018-02-02T16:09:11.339Z,50.78
2018-02-02T16:10:11.306Z,50.87
2018-02-02T16:11:11.307Z,50.87
2018-02-02T16:12:11.307Z,50.72
2018-02-02T16:13:11.310Z,50.63
2018-02-02T16:14:11.436Z,50.6
2018-02-02T16:15:11.383Z,50.69
2018-02-02T16:16:11.345Z,50.54
2018-02-02T16:17:11.312Z,50.14
2018-02-02T16:18:11.317Z,50.5
2018-02-02T16:19:11.310Z,50.53
2018-02-02T16:20:11.345Z,50.34
2018-02-02T16:21:11.312Z,50.21
2018-02-02T16:22:11.318Z,50.43
2018-02-02T16:23:11.317Z,51.1
2018-02-02T16:24:11.621Z,51.03
2018-02-02T16:25:11.695Z,50.69
2018-02-02T16:26:11.482Z,51.39
2018-02-02T16:27:11.317Z,50.95
2018-02-02T16:28:11.351Z,50.73
2018-02-02T16:29:11.324Z,50.93
2018-02-02T16:30:11.328Z,50.42
2018-02-02T16:31:11.352Z,50.64
2018-02-02T16:32:11.329Z,51.09
2018-02-02T16:33:11.322Z,50.42
2018-02-02T16:34:11.324Z,50.84
2018-02-02T16:35:11.326Z,50.8
2018-02-02T16:36:11.360Z,51.01
2018-02-02T16:37:11.345Z,50.81
2018-02-02T16:38:11.328Z,50.56
2018-02-02T16:39:11.352Z,50.16
2018-02-02T16:40:11.332Z,51.14
2018-02-02T16:41:11.327Z,50.52
2018-02-02T16:42:11.391Z,51
2018-02-02T16:43:11.329Z,50.79
2018-02-02T16:44:11.330Z,50.85
2018-02-02T16:45:11.338Z,51.2
2018-02-02T16:46:11.332Z,51.11
2018-02-02T16:47:11.372Z,50.86
2018-02-02T16:48:11.405Z,51.19
2018-02-02T16:49:11.335Z,51.26
2018-02-02T16:50:11.348Z,50.82
2018-02-02T16:51:11.338Z,51.39
2018-02-02T16:52:11.337Z,51.37
2018-02-02T16:53:11.595Z,51.29
2018-02-02T16:54:11.342Z,50.86
2018-02-02T16:55:11.383Z,50.91
2018-02-02T16:56:11.451Z,50.84
2018-02-02T16:57:11.343Z,51.06
2018-02-02T16:58:11.343Z,51.11
2018-02-02T16:59:11.562Z,50.89
2018-02-02T17:00:11.413Z,50.65
2018-02-02T17:01:11.342Z,50.88
2018-02-02T17:02:11.351Z,51.02
2018-02-02T17:03:11.347Z,50.53
2018-02-02T17:04:11.430Z,51.39
2018-02-02T17:05:11.428Z,50.9
2018-02-02T17:06:11.351Z,50.86
2018-02-02T17:07:11.354Z,50.76
2018-02-02T17:08:11.355Z,51.41
2018-02-02T17:09:11.429Z,51.43
2018-02-02T17:10:11.746Z,50.91
2018-02-02T17:11:11.358Z,51.12
2018-02-02T17:12:11.359Z,50.9
2018-02-02T17:13:11.639Z,50.92
2018-02-02T17:14:11.363Z,50.99
2018-02-02T17:15:11.362Z,51.22
2018-02-02T17:16:11.386Z,50.86
2018-02-02T17:17:11.422Z,50.33
2018-02-02T17:18:11.360Z,51.2
2018-02-02T17:19:11.361Z,51.18
2018-02-02T17:20:11.415Z,50.94
2018-02-02T17:21:11.394Z,50.49
2018-02-02T17:22:11.367Z,51.18
2018-02-02T17:23:11.431Z,51.02
2018-02-02T17:24:11.375Z,50.75
2018-02-02T17:25:11.363Z,50.72
2018-02-02T17:26:11.372Z,51.01
2018-02-02T17:27:11.392Z,50.67
2018-02-02T17:28:11.373Z,51.22
2018-02-02T17:29:11.371Z,50.68
2018-02-02T17:30:11.373Z,50.41
2018-02-02T17:31:11.375Z,50.75
2018-02-02T17:32:11.398Z,50.85
2018-02-02T17:33:11.390Z,51.06
2018-02-02T17:34:11.441Z,50.99
2018-02-02T17:35:11.374Z,50.57
2018-02-02T17:36:11.374Z,50.87
2018-02-02T17:37:11.397Z,51.22
2018-02-02T17:38:11.380Z,50.73
2018-02-02T17:39:11.372Z,50.96
2018-02-02T17:40:11.382Z,50.63
2018-02-02T17:41:11.377Z,51.08
2018-02-02T17:42:11.782Z,51.27
2018-02-02T17:43:11.380Z,50.85
2018-02-02T17:44:11.379Z,50.47
2018-02-02T17:45:11.386Z,50.65
2018-02-02T17:46:11.697Z,50.66
2018-02-02T17:47:11.383Z,51.33
2018-02-02T17:48:11.408Z,51.03
2018-02-02T17:49:11.535Z,50.98
2018-02-02T17:50:11.383Z,51.03
2018-02-02T17:51:11.389Z,51.12
2018-02-02T17:52:11.386Z,51.05
2018-02-02T17:53:11.436Z,50.69
2018-02-02T17:54:11.387Z,51.12
2018-02-02T17:55:11.391Z,50.95
2018-02-02T17:56:11.661Z,51.31
2018-02-02T17:57:11.397Z,50.96
2018-02-02T17:58:11.397Z,50.98
2018-02-02T17:59:11.423Z,51.09
2018-02-02T18:00:11.393Z,50.79
2018-02-02T18:01:11.397Z,51.1
2018-02-02T18:02:11.727Z,51.17
2018-02-02T18:03:11.403Z,50.62
2018-02-02T18:04:11.436Z,50.98
2018-02-02T18:05:11.404Z,50.79
2018-02-02T18:06:11.459Z,50.58
2018-02-02T18:07:11.399Z,50.76
2018-02-02T18:08:11.459Z,51.15
2018-02-02T18:09:11.538Z,51.53
2018-02-02T18:10:11.401Z,51.17
2018-02-02T18:11:11.405Z,51.6
2018-02-02T18:12:11.435Z,51.01
2018-02-02T18:13:11.439Z,51.19
2018-02-02T18:14:11.620Z,51.51
2018-02-02T18:15:11.401Z,51.7
2018-02-02T18:16:11.431Z,51.64
2018-02-02T18:17:11.413Z,51.68
2018-02-02T18:18:11.407Z,51.44
2018-02-02T18:19:11.580Z,51.39
2018-02-02T18:20:11.546Z,51.38
2018-02-02T18:50:58.953Z,56.15
2018-02-02T18:51:58.724Z,55.96
2018-02-02T18:52:58.725Z,56.22
2018-02-02T18:53:58.767Z,57.78
2018-02-02T18:54:58.921Z,59.02
2018-02-02T18:56:40.781Z,55.7
2018-02-02T18:57:40.890Z,58.59
2018-02-02T18:58:40.895Z,59.38
2018-02-02T19:00:11.974Z,55.86
2018-02-02T19:01:11.890Z,56.08
2018-02-02T19:02:11.929Z,54.81
2018-02-02T19:03:11.841Z,54.81
2018-02-02T19:05:18.990Z,54.37
2018-02-02T19:06:19.067Z,54.13
2018-02-02T19:07:19.123Z,54.04
2018-02-02T19:08:18.942Z,53.6
2018-02-02T19:09:19.077Z,53.99
2018-02-02T19:10:19.073Z,54.09
2018-02-02T19:12:26.735Z,53.54
2018-02-02T19:13:26.660Z,53.51
2018-02-02T19:14:26.499Z,53.38
2018-02-02T19:15:26.672Z,59.01
2018-02-02T19:16:26.650Z,56.4
2018-02-02T19:17:26.587Z,55.79
2018-02-02T19:18:26.552Z,55.76
2018-02-02T19:19:26.533Z,55.67
2018-02-02T19:20:26.513Z,55
2018-02-02T19:21:26.528Z,55.21
2018-02-02T19:22:26.515Z,55.42
2018-02-02T19:25:37.636Z,54.87
2018-02-02T19:26:37.573Z,54.92
2018-02-02T19:27:37.569Z,57.1
2018-02-02T19:28:37.576Z,56.96
2018-02-02T19:29:37.978Z,55.41
2018-02-02T19:30:37.633Z,55.02
2018-02-02T19:31:37.577Z,55.06
2018-02-02T19:32:37.577Z,54.43
2018-02-02T19:33:37.578Z,54.4
2018-02-02T19:34:37.576Z,54.22
2018-02-02T19:35:37.604Z,53.72
2018-02-02T19:36:37.593Z,54.15
2018-02-02T19:37:37.580Z,54.22
2018-02-02T19:38:37.580Z,53.79
2018-02-02T19:39:37.580Z,54.04
2018-02-02T19:40:37.756Z,53.96
2018-02-02T19:41:37.584Z,53.46
2018-02-02T19:42:37.583Z,53.8
2018-02-02T19:43:37.583Z,53.82
2018-02-02T19:44:37.580Z,53.43
2018-02-02T19:45:37.582Z,53.55
2018-02-02T19:46:37.959Z,53.82
2018-02-02T19:47:37.605Z,53.68
2018-02-02T19:49:28.532Z,56.75
2018-02-02T19:50:28.491Z,55.2
2018-02-02T19:51:28.487Z,54.52
2018-02-02T19:52:28.489Z,54.35
2018-02-02T19:53:28.491Z,54.03
2018-02-02T19:54:28.487Z,54.04
2018-02-02T19:55:28.519Z,54.12
2018-02-02T19:56:28.486Z,54.44
2018-02-02T19:57:28.486Z,55.46
2018-02-02T19:58:28.490Z,54.43
2018-02-02T19:59:28.499Z,54.68
2018-02-02T20:00:28.516Z,54.71
2018-02-02T20:01:28.494Z,55.47
2018-02-02T20:02:28.490Z,54.75
2018-02-02T20:03:28.490Z,53.8
2018-02-02T20:04:28.495Z,54.04
2018-02-02T20:05:28.663Z,54.88
2018-02-02T20:06:28.495Z,54.35
2018-02-02T20:07:28.496Z,55.4
2018-02-02T20:08:28.495Z,54.05
2018-02-02T20:10:33.211Z,54.04
2018-02-02T20:11:33.148Z,53.75
2018-02-02T20:12:33.151Z,53.8
2018-02-02T20:13:33.156Z,53.47
2018-02-02T20:14:33.152Z,53.21
2018-02-02T20:15:33.150Z,53.37
2018-02-02T20:16:33.252Z,53.48
2018-02-02T20:17:33.142Z,53.08
2018-02-02T20:18:56.722Z,53.18
2018-02-02T20:19:56.672Z,53.1
2018-02-02T20:20:56.665Z,53.03
2018-02-02T20:21:56.711Z,53.29
2018-02-02T20:22:56.954Z,52.92
2018-02-02T20:23:56.667Z,54.33
2018-02-02T20:24:56.708Z,53.98
2018-02-02T20:25:56.665Z,53.16
2018-02-02T20:26:56.665Z,53.5
2018-02-02T20:28:50.899Z,53.59
2018-02-02T20:29:50.890Z,53.21
2018-02-02T20:30:50.980Z,53.24
2018-02-02T20:31:51.143Z,53.24
2018-02-02T20:32:50.891Z,54.35
2018-02-02T20:33:50.803Z,54
2018-02-02T20:34:50.830Z,53.23
2018-02-02T20:35:51.005Z,53.03
2018-02-02T20:36:51.154Z,54.06
2018-02-02T20:37:50.971Z,53.48
2018-02-02T20:38:50.820Z,53.68
2018-02-02T20:39:50.890Z,53.69
2018-02-02T20:40:50.820Z,54.48
2018-02-02T20:42:18.958Z,53.49
2018-02-02T20:43:21.469Z,53.25
2018-02-02T20:44:18.353Z,52.97
2018-02-02T20:45:18.287Z,53.67
2018-02-02T20:46:18.367Z,53.37
2018-02-02T20:47:18.344Z,53.57
2018-02-02T20:48:18.425Z,53.35
2018-02-02T20:49:18.242Z,53.06
2018-02-02T20:50:18.458Z,53.28
2018-02-02T20:51:18.432Z,53.14
2018-02-02T20:52:21.398Z,52.84
2018-02-02T20:53:18.315Z,52.84
2018-02-02T20:54:18.513Z,52.92
2018-02-02T20:55:21.393Z,53.23
2018-02-02T20:56:18.315Z,53.09
2018-02-02T20:57:18.645Z,52.71
2018-02-02T20:58:18.288Z,53.23
2018-02-02T20:59:18.323Z,52.76
2018-02-02T21:00:18.486Z,52.73
2018-02-02T21:01:18.482Z,52.73
2018-02-02T21:02:18.494Z,52.97
2018-02-02T21:03:18.436Z,52.62
2018-02-02T21:04:18.359Z,53.01
2018-02-02T21:05:18.293Z,52.96
2018-02-02T21:06:18.599Z,53.01
2018-02-02T21:07:18.427Z,52.83
2018-02-02T21:08:18.450Z,52.95
2018-02-02T21:09:18.439Z,52.52
2018-02-02T21:10:18.254Z,52.79
2018-02-02T21:11:18.369Z,52.81
2018-02-02T21:12:18.352Z,52.69
2018-02-02T21:13:18.465Z,52.43
2018-02-02T21:14:18.550Z,52.31
2018-02-02T21:15:18.466Z,52.37
2018-02-02T21:16:18.323Z,52.36
2018-02-02T21:17:18.337Z,52.77
2018-02-02T21:18:18.294Z,52.9
2018-02-02T21:19:18.264Z,52.8
2018-02-02T21:20:18.380Z,52.12
2018-02-02T21:21:18.268Z,52.29
2018-02-02T21:22:18.270Z,52.29
2018-02-02T21:23:18.432Z,52.66
2018-02-02T21:24:18.270Z,52.54
2018-02-02T21:25:18.273Z,52.32
2018-02-02T21:26:18.277Z,52.63
2018-02-02T21:27:18.273Z,52.66
2018-02-02T21:28:18.289Z,52.25
2018-02-02T21:29:18.300Z,52.66
2018-02-02T21:30:18.276Z,52.63
2018-02-02T21:31:18.279Z,52.71
2018-02-02T21:32:18.281Z,52.4
2018-02-02T21:33:18.280Z,52.51
2018-02-02T21:34:18.412Z,52.36
2018-02-02T21:35:18.283Z,52.15
2018-02-02T21:36:18.291Z,52.27
2018-02-02T21:37:18.287Z,52.15
2018-02-02T21:38:18.281Z,52.48
2018-02-02T21:39:18.301Z,52.42
2018-02-02T21:40:18.312Z,52.56
2018-02-02T21:41:18.282Z,52.56
2018-02-02T21:42:18.286Z,52.46
2018-02-02T21:43:18.285Z,52.51
2018-02-02T21:44:18.292Z,51.95
2018-02-02T21:45:18.319Z,52.5
2018-02-02T21:46:18.369Z,52.48
2018-02-02T21:47:18.285Z,52.1
2018-02-02T21:48:18.293Z,52.41
2018-02-02T21:49:18.465Z,52.52
2018-02-02T21:50:18.321Z,52.43
2018-02-02T21:51:18.290Z,52.08
2018-02-02T21:52:18.296Z,52.03
2018-02-02T21:53:18.296Z,52.01
2018-02-02T21:54:18.297Z,52.54
2018-02-02T21:55:18.670Z,52.37
2018-02-02T21:57:25.023Z,51.93
2018-02-02T21:58:24.484Z,51.96
2018-02-02T21:59:24.480Z,52.04
2018-02-02T22:00:24.905Z,52.06
2018-02-02T22:01:24.483Z,52.06
2018-02-02T22:02:24.479Z,52.03
2018-02-02T22:03:24.482Z,52.37
2018-02-02T22:04:24.481Z,52.3
2018-02-02T22:05:24.482Z,52.31
2018-02-02T22:06:24.510Z,52.36
2018-02-02T22:07:24.487Z,52.02
2018-02-02T22:08:24.488Z,52.33
2018-02-02T22:09:24.490Z,52.33
2018-02-02T22:10:24.484Z,51.86
2018-02-02T22:11:24.516Z,52.01
2018-02-02T22:12:24.493Z,51.95
2018-02-02T22:13:24.493Z,52.3
2018-02-02T22:14:24.496Z,52.39
2018-02-02T22:15:24.493Z,51.89
2018-02-02T22:16:24.489Z,52.29
2018-02-02T22:17:24.540Z,51.95
2018-02-02T22:18:51.022Z,52.37
2018-02-02T22:19:50.987Z,52.33
2018-02-02T22:20:50.975Z,51.9
2018-02-02T22:21:50.983Z,51.94
2018-02-02T22:22:51.399Z,51.88
2018-02-02T22:23:50.982Z,51.8
2018-02-02T22:24:50.980Z,52.28
2018-02-02T22:25:50.984Z,51.85
2018-02-02T22:26:50.985Z,51.86
2018-02-02T22:27:50.982Z,52.07
2018-02-02T22:28:51.016Z,52.16
2018-02-02T22:29:50.983Z,52.04
2018-02-02T22:30:50.989Z,52.24
